sensor_id;sensor_type;location;lat;lon;timestamp;temperature;humidity
16767;DHT22;8501;49.926;8.404;2023-03-01T00:01:09;1.70;99.90
16767;DHT22;8501;49.926;8.404;2023-03-01T00:03:36;1.70;99.90
16767;DHT22;8501;49.926;8.404;2023-03-01T00:06:02;1.70;99.90
16767;DHT22;8501;49.926;8.404;2023-03-01T00:08:29;1.60;99.90
16767;DHT22;8501;49.926;8.404;2023-03-01T00:13:49;1.50;99.90
16767;DHT22;8501;49.926;8.404;2023-03-01T00:16:20;1.60;99.90
16767;DHT22;8501;49.926;8.404;2023-03-01T00:18:46;1.60;99.90
16767;DHT22;8501;49.926;8.404;2023-03-01T00:21:12;1.60;99.90
16767;DHT22;8501;49.926;8.404;2023-03-01T00:23:39;1.60;99.90
16767;DHT22;8501;49.926;8.404;2023-03-01T00:26:13;1.50;99.90
16767;DHT22;8501;49.926;8.404;2023-03-01T00:28:38;1.50;99.90
16767;DHT22;8501;49.926;8.404;2023-03-01T00:31:05;1.40;99.90
16767;DHT22;8501;49.926;8.404;2023-03-01T00:33:31;1.50;99.90
16767;DHT22;8501;49.926;8.404;2023-03-01T00:36:00;1.50;99.90
16767;DHT22;8501;49.926;8.404;2023-03-01T00:38:26;1.50;99.90
16767;DHT22;8501;49.926;8.404;2023-03-01T00:40:51;1.50;99.90
16767;DHT22;8501;49.926;8.404;2023-03-01T00:43:17;1.50;99.90
16767;DHT22;8501;49.926;8.404;2023-03-01T00:45:43;1.50;99.90
16767;DHT22;8501;49.926;8.404;2023-03-01T00:48:08;1.40;99.90
16767;DHT22;8501;49.926;8.404;2023-03-01T00:50:34;1.40;99.90
16767;DHT22;8501;49.926;8.404;2023-03-01T00:52:59;1.40;99.90
16767;DHT22;8501;49.926;8.404;2023-03-01T00:55:25;1.40;99.90
16767;DHT22;8501;49.926;8.404;2023-03-01T00:57:51;1.40;99.90
16767;DHT22;8501;49.926;8.404;2023-03-01T01:00:18;1.40;99.90
16767;DHT22;8501;49.926;8.404;2023-03-01T01:02:44;1.30;99.90
16767;DHT22;8501;49.926;8.404;2023-03-01T01:05:10;1.30;99.90
16767;DHT22;8501;49.926;8.404;2023-03-01T01:07:36;1.30;99.90
16767;DHT22;8501;49.926;8.404;2023-03-01T01:10:02;1.30;99.90
16767;DHT22;8501;49.926;8.404;2023-03-01T01:12:27;1.20;99.90
16767;DHT22;8501;49.926;8.404;2023-03-01T01:14:53;1.20;99.90
16767;DHT22;8501;49.926;8.404;2023-03-01T01:17:18;1.20;99.90
16767;DHT22;8501;49.926;8.404;2023-03-01T01:19:44;1.20;99.90
16767;DHT22;8501;49.926;8.404;2023-03-01T01:22:10;1.20;99.90
16767;DHT22;8501;49.926;8.404;2023-03-01T01:24:35;1.20;99.90
16767;DHT22;8501;49.926;8.404;2023-03-01T01:27:01;1.20;99.90
16767;DHT22;8501;49.926;8.404;2023-03-01T01:29:26;1.20;99.90
16767;DHT22;8501;49.926;8.404;2023-03-01T01:31:52;1.20;99.90
16767;DHT22;8501;49.926;8.404;2023-03-01T01:34:20;1.20;99.90
16767;DHT22;8501;49.926;8.404;2023-03-01T01:36:50;1.20;99.90
16767;DHT22;8501;49.926;8.404;2023-03-01T01:39:18;1.20;99.90
16767;DHT22;8501;49.926;8.404;2023-03-01T01:41:44;1.20;99.90
16767;DHT22;8501;49.926;8.404;2023-03-01T01:44:26;1.20;99.90
16767;DHT22;8501;49.926;8.404;2023-03-01T01:46:58;1.20;99.90
16767;DHT22;8501;49.926;8.404;2023-03-01T01:49:30;1.20;99.90
16767;DHT22;8501;49.926;8.404;2023-03-01T01:55:03;1.20;99.90
16767;DHT22;8501;49.926;8.404;2023-03-01T01:57:39;1.20;99.90
16767;DHT22;8501;49.926;8.404;2023-03-01T02:00:27;1.20;99.90
16767;DHT22;8501;49.926;8.404;2023-03-01T02:02:59;1.20;99.90
16767;DHT22;8501;49.926;8.404;2023-03-01T02:05:49;1.20;99.90
16767;DHT22;8501;49.926;8.404;2023-03-01T02:08:18;1.20;99.90
16767;DHT22;8501;49.926;8.404;2023-03-01T02:10:46;1.20;99.90
16767;DHT22;8501;49.926;8.404;2023-03-01T02:13:13;1.20;99.90
16767;DHT22;8501;49.926;8.404;2023-03-01T02:15:40;1.20;99.90
16767;DHT22;8501;49.926;8.404;2023-03-01T02:18:07;1.10;99.90
16767;DHT22;8501;49.926;8.404;2023-03-01T02:23:03;1.00;99.90
16767;DHT22;8501;49.926;8.404;2023-03-01T02:25:48;1.00;99.90
16767;DHT22;8501;49.926;8.404;2023-03-01T02:30:45;1.00;99.90
16767;DHT22;8501;49.926;8.404;2023-03-01T02:33:31;1.10;99.90
16767;DHT22;8501;49.926;8.404;2023-03-01T02:36:00;1.00;99.90
16767;DHT22;8501;49.926;8.404;2023-03-01T02:38:27;1.00;99.90
16767;DHT22;8501;49.926;8.404;2023-03-01T02:40:53;1.10;99.90
16767;DHT22;8501;49.926;8.404;2023-03-01T02:43:22;1.00;99.90
16767;DHT22;8501;49.926;8.404;2023-03-01T02:45:51;1.10;99.90
16767;DHT22;8501;49.926;8.404;2023-03-01T02:48:19;1.10;99.90
16767;DHT22;8501;49.926;8.404;2023-03-01T02:53:39;1.20;99.90
16767;DHT22;8501;49.926;8.404;2023-03-01T02:56:06;1.10;99.90
16767;DHT22;8501;49.926;8.404;2023-03-01T02:58:39;1.10;99.90
16767;DHT22;8501;49.926;8.404;2023-03-01T03:01:14;1.10;99.90
16767;DHT22;8501;49.926;8.404;2023-03-01T03:03:41;1.10;99.90
16767;DHT22;8501;49.926;8.404;2023-03-01T03:06:07;1.10;99.90
16767;DHT22;8501;49.926;8.404;2023-03-01T03:08:33;1.10;99.90
16767;DHT22;8501;49.926;8.404;2023-03-01T03:10:59;1.10;99.90
16767;DHT22;8501;49.926;8.404;2023-03-01T03:13:24;1.20;99.90
16767;DHT22;8501;49.926;8.404;2023-03-01T03:15:57;1.10;99.90
16767;DHT22;8501;49.926;8.404;2023-03-01T03:18:24;1.10;99.90
16767;DHT22;8501;49.926;8.404;2023-03-01T03:20:52;1.10;99.90
16767;DHT22;8501;49.926;8.404;2023-03-01T03:23:19;1.10;99.90
16767;DHT22;8501;49.926;8.404;2023-03-01T03:25:50;1.10;99.90
16767;DHT22;8501;49.926;8.404;2023-03-01T03:28:16;1.10;99.90
16767;DHT22;8501;49.926;8.404;2023-03-01T03:30:42;1.10;99.90
16767;DHT22;8501;49.926;8.404;2023-03-01T03:33:09;1.00;99.90
16767;DHT22;8501;49.926;8.404;2023-03-01T03:35:41;1.10;99.90
16767;DHT22;8501;49.926;8.404;2023-03-01T03:38:09;1.10;99.90
16767;DHT22;8501;49.926;8.404;2023-03-01T03:41:03;1.10;99.90
16767;DHT22;8501;49.926;8.404;2023-03-01T03:43:28;1.10;99.90
16767;DHT22;8501;49.926;8.404;2023-03-01T03:45:54;1.10;99.90
16767;DHT22;8501;49.926;8.404;2023-03-01T03:48:22;1.10;99.90
16767;DHT22;8501;49.926;8.404;2023-03-01T03:50:52;1.10;99.90
16767;DHT22;8501;49.926;8.404;2023-03-01T03:53:19;1.10;99.90
16767;DHT22;8501;49.926;8.404;2023-03-01T03:55:45;1.10;99.90
16767;DHT22;8501;49.926;8.404;2023-03-01T03:58:10;1.10;99.90
16767;DHT22;8501;49.926;8.404;2023-03-01T04:00:42;1.10;99.90
16767;DHT22;8501;49.926;8.404;2023-03-01T04:03:08;1.10;99.90
16767;DHT22;8501;49.926;8.404;2023-03-01T04:05:35;1.10;99.90
16767;DHT22;8501;49.926;8.404;2023-03-01T04:08:01;1.10;99.90
16767;DHT22;8501;49.926;8.404;2023-03-01T04:10:29;1.10;99.90
16767;DHT22;8501;49.926;8.404;2023-03-01T04:12:55;1.10;99.90
16767;DHT22;8501;49.926;8.404;2023-03-01T04:15:24;1.10;99.90
16767;DHT22;8501;49.926;8.404;2023-03-01T04:17:51;1.20;99.90
16767;DHT22;8501;49.926;8.404;2023-03-01T04:20:23;1.20;99.90
16767;DHT22;8501;49.926;8.404;2023-03-01T04:23:00;1.20;99.90
16767;DHT22;8501;49.926;8.404;2023-03-01T04:25:39;1.20;99.90
16767;DHT22;8501;49.926;8.404;2023-03-01T04:28:05;1.20;99.90
16767;DHT22;8501;49.926;8.404;2023-03-01T04:30:30;1.10;99.90
16767;DHT22;8501;49.926;8.404;2023-03-01T04:33:01;1.10;99.90
16767;DHT22;8501;49.926;8.404;2023-03-01T04:35:27;1.10;99.90
16767;DHT22;8501;49.926;8.404;2023-03-01T04:37:53;1.10;99.90
16767;DHT22;8501;49.926;8.404;2023-03-01T04:40:18;1.10;99.90
16767;DHT22;8501;49.926;8.404;2023-03-01T04:42:44;1.10;99.90
16767;DHT22;8501;49.926;8.404;2023-03-01T04:45:10;1.10;99.90
16767;DHT22;8501;49.926;8.404;2023-03-01T04:47:42;1.10;99.90
16767;DHT22;8501;49.926;8.404;2023-03-01T04:50:08;1.10;99.90
16767;DHT22;8501;49.926;8.404;2023-03-01T04:52:35;1.00;99.90
16767;DHT22;8501;49.926;8.404;2023-03-01T04:55:01;1.00;99.90
16767;DHT22;8501;49.926;8.404;2023-03-01T04:57:26;1.00;99.90
16767;DHT22;8501;49.926;8.404;2023-03-01T04:59:52;1.00;99.90
16767;DHT22;8501;49.926;8.404;2023-03-01T05:02:17;1.00;99.90
16767;DHT22;8501;49.926;8.404;2023-03-01T05:04:43;1.00;99.90
16767;DHT22;8501;49.926;8.404;2023-03-01T05:07:09;1.00;99.90
16767;DHT22;8501;49.926;8.404;2023-03-01T05:09:34;1.00;99.90
16767;DHT22;8501;49.926;8.404;2023-03-01T05:12:00;0.90;99.90
16767;DHT22;8501;49.926;8.404;2023-03-01T05:14:25;0.90;99.90
16767;DHT22;8501;49.926;8.404;2023-03-01T05:16:51;1.00;99.90
16767;DHT22;8501;49.926;8.404;2023-03-01T05:19:16;1.00;99.90
16767;DHT22;8501;49.926;8.404;2023-03-01T05:21:48;0.90;99.90
16767;DHT22;8501;49.926;8.404;2023-03-01T05:24:35;1.00;99.90
16767;DHT22;8501;49.926;8.404;2023-03-01T05:27:02;0.90;99.90
16767;DHT22;8501;49.926;8.404;2023-03-01T05:29:30;0.90;99.90
16767;DHT22;8501;49.926;8.404;2023-03-01T05:31:58;1.00;99.90
16767;DHT22;8501;49.926;8.404;2023-03-01T05:34:25;0.90;99.90
16767;DHT22;8501;49.926;8.404;2023-03-01T05:36:52;0.90;99.90
16767;DHT22;8501;49.926;8.404;2023-03-01T05:39:19;0.90;99.90
16767;DHT22;8501;49.926;8.404;2023-03-01T05:41:46;1.00;99.90
16767;DHT22;8501;49.926;8.404;2023-03-01T05:44:12;0.90;99.90
16767;DHT22;8501;49.926;8.404;2023-03-01T05:46:37;0.90;99.90
16767;DHT22;8501;49.926;8.404;2023-03-01T05:49:03;0.90;99.90
16767;DHT22;8501;49.926;8.404;2023-03-01T05:51:29;1.00;99.90
16767;DHT22;8501;49.926;8.404;2023-03-01T05:53:55;0.90;99.90
16767;DHT22;8501;49.926;8.404;2023-03-01T05:56:20;0.90;99.90
16767;DHT22;8501;49.926;8.404;2023-03-01T05:58:48;0.90;99.90
16767;DHT22;8501;49.926;8.404;2023-03-01T06:01:14;0.90;99.90
16767;DHT22;8501;49.926;8.404;2023-03-01T06:03:40;0.90;99.90
16767;DHT22;8501;49.926;8.404;2023-03-01T06:06:05;0.90;99.90
16767;DHT22;8501;49.926;8.404;2023-03-01T06:08:31;1.00;99.90
16767;DHT22;8501;49.926;8.404;2023-03-01T06:10:56;1.00;99.90
16767;DHT22;8501;49.926;8.404;2023-03-01T06:13:23;1.00;99.90
16767;DHT22;8501;49.926;8.404;2023-03-01T06:15:49;1.00;99.90
16767;DHT22;8501;49.926;8.404;2023-03-01T06:18:14;1.00;99.90
16767;DHT22;8501;49.926;8.404;2023-03-01T06:20:40;1.00;99.90
16767;DHT22;8501;49.926;8.404;2023-03-01T06:23:05;1.00;99.90
16767;DHT22;8501;49.926;8.404;2023-03-01T06:25:31;1.10;99.90
16767;DHT22;8501;49.926;8.404;2023-03-01T06:27:57;1.10;99.90
16767;DHT22;8501;49.926;8.404;2023-03-01T06:30:24;1.10;99.90
16767;DHT22;8501;49.926;8.404;2023-03-01T06:32:50;1.10;99.90
16767;DHT22;8501;49.926;8.404;2023-03-01T06:35:17;1.10;99.90
16767;DHT22;8501;49.926;8.404;2023-03-01T06:37:43;1.00;99.90
16767;DHT22;8501;49.926;8.404;2023-03-01T06:40:10;1.00;99.90
16767;DHT22;8501;49.926;8.404;2023-03-01T06:42:40;1.10;99.90
16767;DHT22;8501;49.926;8.404;2023-03-01T06:45:07;1.10;99.90
16767;DHT22;8501;49.926;8.404;2023-03-01T06:47:33;1.10;99.90
16767;DHT22;8501;49.926;8.404;2023-03-01T06:49:59;1.10;99.90
16767;DHT22;8501;49.926;8.404;2023-03-01T06:52:25;1.10;99.90
16767;DHT22;8501;49.926;8.404;2023-03-01T06:54:51;1.10;99.90
16767;DHT22;8501;49.926;8.404;2023-03-01T06:57:18;1.00;99.90
16767;DHT22;8501;49.926;8.404;2023-03-01T06:59:43;1.00;99.90
16767;DHT22;8501;49.926;8.404;2023-03-01T07:02:13;1.00;99.90
16767;DHT22;8501;49.926;8.404;2023-03-01T07:04:39;1.00;99.90
16767;DHT22;8501;49.926;8.404;2023-03-01T07:07:05;1.10;99.90
16767;DHT22;8501;49.926;8.404;2023-03-01T07:09:30;1.00;99.90
16767;DHT22;8501;49.926;8.404;2023-03-01T07:11:56;1.00;99.90
16767;DHT22;8501;49.926;8.404;2023-03-01T07:14:22;1.00;99.90
16767;DHT22;8501;49.926;8.404;2023-03-01T07:16:49;0.90;99.90
16767;DHT22;8501;49.926;8.404;2023-03-01T07:19:15;1.00;99.90
16767;DHT22;8501;49.926;8.404;2023-03-01T07:21:41;1.00;99.90
16767;DHT22;8501;49.926;8.404;2023-03-01T07:24:07;1.00;99.90
16767;DHT22;8501;49.926;8.404;2023-03-01T07:26:33;1.00;99.90
16767;DHT22;8501;49.926;8.404;2023-03-01T07:29:03;1.00;99.90
16767;DHT22;8501;49.926;8.404;2023-03-01T07:31:28;1.00;99.90
16767;DHT22;8501;49.926;8.404;2023-03-01T07:33:54;1.00;99.90
16767;DHT22;8501;49.926;8.404;2023-03-01T07:36:20;1.10;99.90
16767;DHT22;8501;49.926;8.404;2023-03-01T07:38:46;1.00;99.90
16767;DHT22;8501;49.926;8.404;2023-03-01T07:41:12;1.10;99.90
16767;DHT22;8501;49.926;8.404;2023-03-01T07:43:38;1.10;99.90
16767;DHT22;8501;49.926;8.404;2023-03-01T07:46:04;1.10;99.90
16767;DHT22;8501;49.926;8.404;2023-03-01T07:48:31;1.20;99.90
16767;DHT22;8501;49.926;8.404;2023-03-01T07:51:01;1.20;99.90
16767;DHT22;8501;49.926;8.404;2023-03-01T07:53:28;1.30;99.90
16767;DHT22;8501;49.926;8.404;2023-03-01T07:56:11;1.40;99.90
16767;DHT22;8501;49.926;8.404;2023-03-01T07:58:38;1.50;99.90
16767;DHT22;8501;49.926;8.404;2023-03-01T08:01:05;1.60;99.90
16767;DHT22;8501;49.926;8.404;2023-03-01T08:03:32;1.60;99.90
16767;DHT22;8501;49.926;8.404;2023-03-01T08:06:01;1.70;99.90
16767;DHT22;8501;49.926;8.404;2023-03-01T08:08:27;1.80;99.90
16767;DHT22;8501;49.926;8.404;2023-03-01T08:10:56;1.90;99.90
16767;DHT22;8501;49.926;8.404;2023-03-01T08:13:22;1.90;99.90
16767;DHT22;8501;49.926;8.404;2023-03-01T08:15:49;1.90;99.90
16767;DHT22;8501;49.926;8.404;2023-03-01T08:18:16;2.10;99.90
16767;DHT22;8501;49.926;8.404;2023-03-01T08:20:41;2.10;99.90
16767;DHT22;8501;49.926;8.404;2023-03-01T08:23:07;2.20;99.90
16767;DHT22;8501;49.926;8.404;2023-03-01T08:25:32;2.20;99.90
16767;DHT22;8501;49.926;8.404;2023-03-01T08:27:58;2.20;99.90
16767;DHT22;8501;49.926;8.404;2023-03-01T08:30:24;2.30;99.90
16767;DHT22;8501;49.926;8.404;2023-03-01T08:32:50;2.30;99.90
16767;DHT22;8501;49.926;8.404;2023-03-01T08:35:16;2.50;99.90
16767;DHT22;8501;49.926;8.404;2023-03-01T08:37:42;2.50;99.90
16767;DHT22;8501;49.926;8.404;2023-03-01T08:40:08;2.60;99.90
16767;DHT22;8501;49.926;8.404;2023-03-01T08:42:35;2.70;99.90
16767;DHT22;8501;49.926;8.404;2023-03-01T08:45:02;2.70;99.90
16767;DHT22;8501;49.926;8.404;2023-03-01T08:47:27;2.70;99.90
16767;DHT22;8501;49.926;8.404;2023-03-01T08:49:53;2.80;99.90
16767;DHT22;8501;49.926;8.404;2023-03-01T08:52:19;2.90;99.90
16767;DHT22;8501;49.926;8.404;2023-03-01T08:54:47;3.00;99.90
16767;DHT22;8501;49.926;8.404;2023-03-01T08:57:13;3.10;99.90
16767;DHT22;8501;49.926;8.404;2023-03-01T08:59:38;3.10;99.90
16767;DHT22;8501;49.926;8.404;2023-03-01T09:02:08;3.20;99.90
16767;DHT22;8501;49.926;8.404;2023-03-01T09:04:36;3.30;99.90
16767;DHT22;8501;49.926;8.404;2023-03-01T09:07:02;3.30;99.90
16767;DHT22;8501;49.926;8.404;2023-03-01T09:09:27;3.30;99.90
16767;DHT22;8501;49.926;8.404;2023-03-01T09:11:53;3.30;99.90
16767;DHT22;8501;49.926;8.404;2023-03-01T09:14:18;3.40;99.90
16767;DHT22;8501;49.926;8.404;2023-03-01T09:16:44;3.50;99.90
16767;DHT22;8501;49.926;8.404;2023-03-01T09:19:10;3.50;99.90
16767;DHT22;8501;49.926;8.404;2023-03-01T09:21:37;3.50;99.90
16767;DHT22;8501;49.926;8.404;2023-03-01T09:24:03;3.60;99.90
16767;DHT22;8501;49.926;8.404;2023-03-01T09:26:28;3.70;99.90
16767;DHT22;8501;49.926;8.404;2023-03-01T09:28:55;3.70;99.90
16767;DHT22;8501;49.926;8.404;2023-03-01T09:31:22;3.80;99.90
16767;DHT22;8501;49.926;8.404;2023-03-01T09:33:49;3.90;99.90
16767;DHT22;8501;49.926;8.404;2023-03-01T09:36:21;4.00;99.90
16767;DHT22;8501;49.926;8.404;2023-03-01T09:38:47;4.00;99.90
16767;DHT22;8501;49.926;8.404;2023-03-01T09:44:07;4.10;99.90
16767;DHT22;8501;49.926;8.404;2023-03-01T09:46:40;4.10;99.90
16767;DHT22;8501;49.926;8.404;2023-03-01T09:49:23;4.10;99.90
16767;DHT22;8501;49.926;8.404;2023-03-01T09:52:03;4.20;99.90
16767;DHT22;8501;49.926;8.404;2023-03-01T09:54:31;4.30;99.90
16767;DHT22;8501;49.926;8.404;2023-03-01T10:00:12;4.40;99.90
16767;DHT22;8501;49.926;8.404;2023-03-01T10:02:45;4.50;99.90
16767;DHT22;8501;49.926;8.404;2023-03-01T10:05:34;4.60;99.90
16767;DHT22;8501;49.926;8.404;2023-03-01T10:08:20;4.70;99.90
16767;DHT22;8501;49.926;8.404;2023-03-01T10:10:49;4.80;99.90
16767;DHT22;8501;49.926;8.404;2023-03-01T10:16:12;4.90;99.90
16767;DHT22;8501;49.926;8.404;2023-03-01T10:18:39;5.00;99.90
16767;DHT22;8501;49.926;8.404;2023-03-01T10:21:15;5.00;99.90
16767;DHT22;8501;49.926;8.404;2023-03-01T10:23:42;5.10;99.90
16767;DHT22;8501;49.926;8.404;2023-03-01T10:29:09;5.30;99.90
16767;DHT22;8501;49.926;8.404;2023-03-01T10:34:13;5.40;99.90
16767;DHT22;8501;49.926;8.404;2023-03-01T10:36:41;5.50;99.90
16767;DHT22;8501;49.926;8.404;2023-03-01T10:39:19;5.60;99.90
16767;DHT22;8501;49.926;8.404;2023-03-01T10:41:59;5.60;99.90
16767;DHT22;8501;49.926;8.404;2023-03-01T10:44:54;5.60;99.90
16767;DHT22;8501;49.926;8.404;2023-03-01T10:47:25;5.70;99.90
16767;DHT22;8501;49.926;8.404;2023-03-01T10:49:59;5.70;99.90
16767;DHT22;8501;49.926;8.404;2023-03-01T10:52:37;5.80;99.90
16767;DHT22;8501;49.926;8.404;2023-03-01T10:58:21;6.00;99.90
16767;DHT22;8501;49.926;8.404;2023-03-01T11:01:03;6.00;99.90
16767;DHT22;8501;49.926;8.404;2023-03-01T11:03:34;6.10;99.90
16767;DHT22;8501;49.926;8.404;2023-03-01T11:06:12;6.10;99.90
16767;DHT22;8501;49.926;8.404;2023-03-01T11:08:46;6.10;99.90
16767;DHT22;8501;49.926;8.404;2023-03-01T11:13:52;6.20;99.90
16767;DHT22;8501;49.926;8.404;2023-03-01T11:16:36;6.30;99.90
16767;DHT22;8501;49.926;8.404;2023-03-01T11:21:39;6.40;99.90
16767;DHT22;8501;49.926;8.404;2023-03-01T11:24:10;6.40;99.90
16767;DHT22;8501;49.926;8.404;2023-03-01T11:26:39;6.50;99.90
16767;DHT22;8501;49.926;8.404;2023-03-01T11:29:41;6.50;99.90
16767;DHT22;8501;49.926;8.404;2023-03-01T11:32:09;6.70;99.90
16767;DHT22;8501;49.926;8.404;2023-03-01T11:34:42;6.80;99.90
16767;DHT22;8501;49.926;8.404;2023-03-01T11:37:34;6.70;99.90
16767;DHT22;8501;49.926;8.404;2023-03-01T11:43:01;6.90;99.90
16767;DHT22;8501;49.926;8.404;2023-03-01T11:45:38;7.00;99.90
16767;DHT22;8501;49.926;8.404;2023-03-01T11:51:09;7.10;99.90
16767;DHT22;8501;49.926;8.404;2023-03-01T11:59:30;7.30;99.90
16767;DHT22;8501;49.926;8.404;2023-03-01T12:05:03;7.30;99.90
16767;DHT22;8501;49.926;8.404;2023-03-01T12:07:45;7.30;99.90
16767;DHT22;8501;49.926;8.404;2023-03-01T12:10:26;7.40;99.90
16767;DHT22;8501;49.926;8.404;2023-03-01T12:12:56;7.40;99.90
16767;DHT22;8501;49.926;8.404;2023-03-01T12:18:17;7.60;99.90
16767;DHT22;8501;49.926;8.404;2023-03-01T12:28:53;7.80;99.90
16767;DHT22;8501;49.926;8.404;2023-03-01T12:34:25;7.90;99.90
16767;DHT22;8501;49.926;8.404;2023-03-01T12:50:57;8.20;99.90
16767;DHT22;8501;49.926;8.404;2023-03-01T12:55:56;8.30;99.90
16767;DHT22;8501;49.926;8.404;2023-03-01T12:58:34;8.50;99.90
16767;DHT22;8501;49.926;8.404;2023-03-01T13:01:22;8.50;99.90
16767;DHT22;8501;49.926;8.404;2023-03-01T13:04:12;8.50;99.90
16767;DHT22;8501;49.926;8.404;2023-03-01T13:17:48;8.80;99.90
16767;DHT22;8501;49.926;8.404;2023-03-01T13:20:17;8.90;99.90
16767;DHT22;8501;49.926;8.404;2023-03-01T13:22:45;9.00;99.90
16767;DHT22;8501;49.926;8.404;2023-03-01T13:25:16;9.00;99.90
16767;DHT22;8501;49.926;8.404;2023-03-01T13:27:43;9.10;99.90
16767;DHT22;8501;49.926;8.404;2023-03-01T13:35:53;9.20;99.90
16767;DHT22;8501;49.926;8.404;2023-03-01T13:38:39;9.20;99.90
16767;DHT22;8501;49.926;8.404;2023-03-01T13:41:09;9.10;99.90
16767;DHT22;8501;49.926;8.404;2023-03-01T13:43:36;9.30;99.90
16767;DHT22;8501;49.926;8.404;2023-03-01T13:46:26;9.20;99.90
16767;DHT22;8501;49.926;8.404;2023-03-01T13:48:56;9.20;99.90
16767;DHT22;8501;49.926;8.404;2023-03-01T13:51:25;9.20;99.90
16767;DHT22;8501;49.926;8.404;2023-03-01T13:53:54;9.30;99.90
16767;DHT22;8501;49.926;8.404;2023-03-01T13:56:28;9.40;99.90
16767;DHT22;8501;49.926;8.404;2023-03-01T13:59:02;9.40;99.90
16767;DHT22;8501;49.926;8.404;2023-03-01T14:01:31;9.40;99.90
16767;DHT22;8501;49.926;8.404;2023-03-01T14:03:57;9.40;99.90
16767;DHT22;8501;49.926;8.404;2023-03-01T14:06:31;9.40;99.90
16767;DHT22;8501;49.926;8.404;2023-03-01T14:09:24;9.50;99.90
16767;DHT22;8501;49.926;8.404;2023-03-01T14:12:23;9.50;99.90
16767;DHT22;8501;49.926;8.404;2023-03-01T14:15:06;9.60;99.90
16767;DHT22;8501;49.926;8.404;2023-03-01T14:20:32;9.70;99.90
16767;DHT22;8501;49.926;8.404;2023-03-01T14:23:02;10.00;99.90
16767;DHT22;8501;49.926;8.404;2023-03-01T14:25:35;10.30;99.90
16767;DHT22;8501;49.926;8.404;2023-03-01T14:28:19;10.80;99.90
16767;DHT22;8501;49.926;8.404;2023-03-01T14:30:52;11.40;99.90
16767;DHT22;8501;49.926;8.404;2023-03-01T14:33:27;11.80;99.90
16767;DHT22;8501;49.926;8.404;2023-03-01T14:36:06;12.10;99.90
16767;DHT22;8501;49.926;8.404;2023-03-01T14:38:35;12.80;99.80
16767;DHT22;8501;49.926;8.404;2023-03-01T14:41:10;13.30;98.30
16767;DHT22;8501;49.926;8.404;2023-03-01T14:43:46;13.60;97.20
16767;DHT22;8501;49.926;8.404;2023-03-01T14:46:28;14.00;95.20
16767;DHT22;8501;49.926;8.404;2023-03-01T14:49:01;14.20;94.10
16767;DHT22;8501;49.926;8.404;2023-03-01T14:51:27;14.30;92.80
16767;DHT22;8501;49.926;8.404;2023-03-01T14:53:53;14.40;92.40
16767;DHT22;8501;49.926;8.404;2023-03-01T14:56:19;14.70;92.30
16767;DHT22;8501;49.926;8.404;2023-03-01T14:58:46;14.60;90.60
16767;DHT22;8501;49.926;8.404;2023-03-01T15:01:16;14.70;90.80
16767;DHT22;8501;49.926;8.404;2023-03-01T15:03:45;14.80;90.80
16767;DHT22;8501;49.926;8.404;2023-03-01T15:06:19;14.90;90.30
16767;DHT22;8501;49.926;8.404;2023-03-01T15:08:48;14.70;89.40
16767;DHT22;8501;49.926;8.404;2023-03-01T15:11:24;14.50;89.40
16767;DHT22;8501;49.926;8.404;2023-03-01T15:13:52;14.50;90.10
16767;DHT22;8501;49.926;8.404;2023-03-01T15:16:23;14.60;88.50
16767;DHT22;8501;49.926;8.404;2023-03-01T15:18:57;14.50;88.50
16767;DHT22;8501;49.926;8.404;2023-03-01T15:21:30;14.20;89.00
16767;DHT22;8501;49.926;8.404;2023-03-01T15:26:35;13.10;90.40
16767;DHT22;8501;49.926;8.404;2023-03-01T15:29:02;12.30;91.30
16767;DHT22;8501;49.926;8.404;2023-03-01T15:31:31;11.80;92.00
16767;DHT22;8501;49.926;8.404;2023-03-01T15:36:48;11.00;93.60
16767;DHT22;8501;49.926;8.404;2023-03-01T15:39:38;10.60;94.40
16767;DHT22;8501;49.926;8.404;2023-03-01T15:44:37;10.10;95.00
16767;DHT22;8501;49.926;8.404;2023-03-01T15:47:21;10.00;95.40
16767;DHT22;8501;49.926;8.404;2023-03-01T15:49:47;9.90;95.50
16767;DHT22;8501;49.926;8.404;2023-03-01T15:52:22;9.80;95.70
16767;DHT22;8501;49.926;8.404;2023-03-01T15:55:00;9.70;95.70
16767;DHT22;8501;49.926;8.404;2023-03-01T15:57:26;9.60;96.00
16767;DHT22;8501;49.926;8.404;2023-03-01T15:59:52;9.50;96.30
16767;DHT22;8501;49.926;8.404;2023-03-01T16:02:18;9.40;96.30
16767;DHT22;8501;49.926;8.404;2023-03-01T16:04:46;9.30;96.70
16767;DHT22;8501;49.926;8.404;2023-03-01T16:07:12;9.20;96.30
16767;DHT22;8501;49.926;8.404;2023-03-01T16:09:37;9.10;96.60
16767;DHT22;8501;49.926;8.404;2023-03-01T16:12:03;9.10;96.80
16767;DHT22;8501;49.926;8.404;2023-03-01T16:14:29;9.00;96.90
16767;DHT22;8501;49.926;8.404;2023-03-01T16:16:55;8.90;97.00
16767;DHT22;8501;49.926;8.404;2023-03-01T16:19:20;8.90;97.50
16767;DHT22;8501;49.926;8.404;2023-03-01T16:21:49;8.80;97.50
16767;DHT22;8501;49.926;8.404;2023-03-01T16:24:15;8.70;97.70
16767;DHT22;8501;49.926;8.404;2023-03-01T16:26:40;8.70;98.00
16767;DHT22;8501;49.926;8.404;2023-03-01T16:29:07;8.60;98.20
16767;DHT22;8501;49.926;8.404;2023-03-01T16:31:33;8.60;98.50
16767;DHT22;8501;49.926;8.404;2023-03-01T16:33:59;8.50;98.40
16767;DHT22;8501;49.926;8.404;2023-03-01T16:36:26;8.50;98.60
16767;DHT22;8501;49.926;8.404;2023-03-01T16:38:54;8.40;98.70
16767;DHT22;8501;49.926;8.404;2023-03-01T16:41:22;8.40;98.80
16767;DHT22;8501;49.926;8.404;2023-03-01T16:43:49;8.30;99.00
16767;DHT22;8501;49.926;8.404;2023-03-01T16:46:17;8.30;99.10
16767;DHT22;8501;49.926;8.404;2023-03-01T16:48:43;8.20;99.10
16767;DHT22;8501;49.926;8.404;2023-03-01T16:51:10;8.20;99.10
16767;DHT22;8501;49.926;8.404;2023-03-01T16:53:36;8.10;99.30
16767;DHT22;8501;49.926;8.404;2023-03-01T16:56:05;8.20;99.90
16767;DHT22;8501;49.926;8.404;2023-03-01T16:58:30;8.10;99.80
16767;DHT22;8501;49.926;8.404;2023-03-01T17:00:56;8.00;99.70
16767;DHT22;8501;49.926;8.404;2023-03-01T17:03:24;7.90;99.80
16767;DHT22;8501;49.926;8.404;2023-03-01T17:05:51;7.90;99.90
16767;DHT22;8501;49.926;8.404;2023-03-01T17:08:17;7.80;99.90
16767;DHT22;8501;49.926;8.404;2023-03-01T17:10:42;7.80;99.90
16767;DHT22;8501;49.926;8.404;2023-03-01T17:13:09;7.80;99.90
16767;DHT22;8501;49.926;8.404;2023-03-01T17:15:38;7.80;99.90
16767;DHT22;8501;49.926;8.404;2023-03-01T17:18:04;7.70;99.90
16767;DHT22;8501;49.926;8.404;2023-03-01T17:20:30;7.70;99.90
16767;DHT22;8501;49.926;8.404;2023-03-01T17:22:55;7.70;99.90
16767;DHT22;8501;49.926;8.404;2023-03-01T17:25:21;7.70;99.90
16767;DHT22;8501;49.926;8.404;2023-03-01T17:27:46;7.60;99.90
16767;DHT22;8501;49.926;8.404;2023-03-01T17:30:13;7.50;99.90
16767;DHT22;8501;49.926;8.404;2023-03-01T17:32:39;7.50;99.90
16767;DHT22;8501;49.926;8.404;2023-03-01T17:35:05;7.50;99.90
16767;DHT22;8501;49.926;8.404;2023-03-01T17:37:32;7.40;99.90
16767;DHT22;8501;49.926;8.404;2023-03-01T17:40:00;7.40;99.90
16767;DHT22;8501;49.926;8.404;2023-03-01T17:42:26;7.40;99.90
16767;DHT22;8501;49.926;8.404;2023-03-01T17:44:51;7.30;99.90
16767;DHT22;8501;49.926;8.404;2023-03-01T17:47:17;7.30;99.90
16767;DHT22;8501;49.926;8.404;2023-03-01T17:49:42;7.20;99.90
16767;DHT22;8501;49.926;8.404;2023-03-01T17:52:08;7.20;99.90
16767;DHT22;8501;49.926;8.404;2023-03-01T17:54:33;7.20;99.90
16767;DHT22;8501;49.926;8.404;2023-03-01T17:56:59;7.20;99.90
16767;DHT22;8501;49.926;8.404;2023-03-01T17:59:25;7.10;99.90
16767;DHT22;8501;49.926;8.404;2023-03-01T18:01:56;7.10;99.90